createdAt,value
2024-03-05T00:00:22.908Z,4.07
2024-03-05T00:05:24.933Z,4.40
2024-03-05T00:10:26.568Z,3.33
2024-03-05T00:15:28.403Z,3.70
2024-03-05T00:20:30.074Z,3.90
2024-03-05T00:25:31.774Z,3.88
2024-03-05T00:30:33.434Z,4.00
2024-03-05T00:35:35.310Z,3.65
2024-03-05T00:40:36.950Z,3.88
2024-03-05T00:45:38.570Z,4.10
2024-03-05T00:50:41.080Z,3.85
2024-03-05T00:55:42.796Z,4.25
2024-03-05T01:00:44.547Z,4.78
2024-03-05T01:05:46.668Z,4.55
2024-03-05T01:10:48.336Z,3.53
2024-03-05T01:15:50.001Z,3.60
2024-03-05T01:20:51.571Z,4.03
2024-03-05T01:25:53.257Z,4.15
2024-03-05T01:30:55.670Z,3.70
2024-03-05T01:35:57.893Z,4.47
2024-03-05T01:40:59.536Z,4.13
2024-03-05T01:46:01.345Z,4.00
2024-03-05T01:51:03.301Z,4.43
2024-03-05T01:56:06.036Z,3.55
2024-03-05T02:01:08.305Z,4.00
2024-03-05T02:06:12.155Z,3.80
2024-03-05T02:11:14.820Z,4.07
2024-03-05T02:16:17.060Z,4.00
2024-03-05T02:21:22.364Z,4.10
2024-03-05T02:26:25.424Z,3.78
2024-03-05T02:31:27.247Z,3.83
2024-03-05T02:36:28.854Z,3.58
2024-03-05T02:41:30.524Z,3.38
2024-03-05T02:46:32.299Z,3.25
2024-03-05T02:51:33.942Z,3.65
2024-03-05T02:56:35.625Z,3.42
2024-03-05T03:01:37.944Z,3.55
2024-03-05T03:06:40.894Z,3.53
2024-03-05T03:11:43.147Z,3.33
2024-03-05T03:16:45.349Z,3.92
2024-03-05T03:21:47.107Z,3.63
2024-03-05T03:26:49.902Z,3.60
2024-03-05T03:31:51.624Z,3.70
2024-03-05T03:36:54.742Z,3.53
2024-03-05T03:41:56.581Z,3.63
2024-03-05T03:46:58.348Z,3.30
2024-03-05T03:52:00.775Z,3.50
2024-03-05T03:57:02.346Z,2.95
2024-03-05T04:02:05.015Z,3.72
2024-03-05T04:07:07.620Z,2.75
2024-03-05T04:12:09.415Z,3.40
2024-03-05T04:17:11.020Z,2.83
2024-03-05T04:22:15.373Z,2.75
2024-03-05T04:27:19.744Z,2.88
2024-03-05T04:32:22.072Z,3.78
2024-03-05T04:37:23.715Z,2.88
2024-03-05T04:42:26.596Z,3.05
2024-03-05T04:47:28.226Z,2.88
2024-03-05T04:52:32.733Z,3.30
2024-03-05T04:57:35.701Z,3.80
2024-03-05T05:02:37.312Z,3.22
2024-03-05T05:07:38.957Z,3.13
2024-03-05T05:12:41.130Z,3.25
2024-03-05T05:17:42.853Z,3.53
2024-03-05T05:22:45.633Z,3.17
2024-03-05T05:27:50.778Z,3.72
2024-03-05T05:32:53.382Z,3.13
2024-03-05T05:37:55.291Z,3.05
2024-03-05T05:42:56.936Z,2.97
2024-03-05T05:47:59.479Z,3.22
2024-03-05T05:53:01.573Z,3.80
2024-03-05T05:58:05.478Z,3.03
2024-03-05T06:03:12.312Z,3.30
2024-03-05T06:13:17.774Z,2.90
2024-03-05T06:18:19.513Z,3.78
2024-03-05T06:23:21.340Z,3.00
2024-03-05T06:28:23.003Z,3.20
2024-03-05T06:33:24.796Z,2.78
2024-03-05T06:38:26.428Z,3.70
2024-03-05T06:43:40.013Z,3.30
2024-03-05T06:48:49.068Z,4.53
2024-03-05T06:54:09.267Z,4.63
2024-03-05T06:59:11.692Z,3.50
2024-03-05T07:04:13.552Z,3.83
2024-03-05T07:09:15.143Z,3.35
2024-03-05T07:14:17.275Z,3.80
2024-03-05T07:19:18.936Z,3.92
2024-03-05T07:24:20.535Z,5.05
2024-03-05T07:29:22.180Z,4.93
2024-03-05T07:34:23.916Z,4.65
2024-03-05T07:39:25.990Z,4.82
2024-03-05T07:44:28.055Z,4.53
2024-03-05T07:49:29.797Z,5.10
2024-03-05T07:54:31.540Z,3.72
2024-03-05T07:59:33.377Z,4.18
2024-03-05T08:04:35.119Z,4.68
2024-03-05T08:09:37.963Z,4.43
2024-03-05T08:14:39.576Z,4.97
2024-03-05T08:19:42.666Z,4.30
2024-03-05T08:24:44.334Z,4.15
2024-03-05T08:29:46.355Z,4.10
2024-03-05T08:34:48.134Z,3.70
2024-03-05T08:39:51.305Z,4.10
2024-03-05T08:44:53.149Z,5.80
2024-03-05T08:49:55.196Z,4.68
2024-03-05T08:54:57.601Z,4.47
2024-03-05T09:00:13.164Z,4.40
2024-03-05T09:05:22.724Z,4.32
2024-03-05T09:10:24.456Z,3.85
2024-03-05T09:15:27.105Z,3.65
2024-03-05T09:20:28.789Z,3.63
2024-03-05T09:25:31.541Z,3.85
2024-03-05T09:30:35.012Z,3.40
2024-03-05T09:35:37.171Z,3.63
2024-03-05T09:40:41.479Z,3.42
2024-03-05T09:45:46.132Z,3.30
2024-03-05T09:50:49.908Z,3.50
2024-03-05T09:55:54.021Z,3.63
2024-03-05T10:00:55.738Z,3.47
2024-03-05T10:05:57.996Z,3.78
2024-03-05T10:11:04.972Z,3.50
2024-03-05T10:16:17.558Z,3.30
2024-03-05T10:21:23.628Z,2.95
2024-03-05T10:26:28.516Z,2.85
2024-03-05T10:31:30.428Z,2.95
2024-03-05T10:36:37.497Z,3.15
2024-03-05T10:41:47.448Z,3.15
2024-03-05T10:46:56.405Z,3.78
2024-03-05T10:52:00.967Z,2.65
2024-03-05T10:57:02.608Z,3.35
2024-03-05T11:02:06.542Z,3.58
2024-03-05T11:07:08.642Z,4.13
2024-03-05T11:12:17.831Z,3.45
2024-03-05T11:17:20.957Z,3.50
2024-03-05T11:22:24.949Z,4.00
2024-03-05T11:27:29.357Z,3.60
2024-03-05T11:32:35.643Z,3.38
2024-03-05T11:38:07.412Z,3.67
2024-03-05T11:43:09.038Z,3.58
2024-03-05T11:48:12.657Z,3.45
2024-03-05T11:53:14.892Z,3.63
2024-03-05T11:58:16.588Z,3.67
2024-03-05T12:03:21.057Z,3.03
2024-03-05T12:08:26.098Z,3.10
2024-03-05T12:13:28.556Z,3.10
2024-03-05T12:18:30.397Z,3.60
2024-03-05T12:23:41.601Z,3.70
2024-03-05T12:28:44.926Z,3.58
2024-03-05T12:33:47.138Z,3.80
2024-03-05T12:38:48.799Z,4.03
2024-03-05T12:43:57.091Z,4.20
2024-03-05T12:48:59.906Z,4.32
2024-03-05T12:54:08.971Z,3.95
2024-03-05T12:59:20.835Z,4.18
2024-03-05T13:04:22.530Z,3.67
2024-03-05T13:09:24.369Z,3.83
2024-03-05T13:14:27.195Z,3.70
2024-03-05T13:19:29.202Z,3.60
2024-03-05T13:24:32.438Z,3.60
2024-03-05T13:29:34.043Z,4.68
2024-03-05T13:34:35.727Z,4.25
2024-03-05T13:39:37.390Z,3.80
2024-03-05T13:44:39.448Z,3.63
2024-03-05T13:49:41.110Z,4.93
2024-03-05T13:54:42.778Z,4.68
2024-03-05T13:59:44.948Z,4.50
2024-03-05T14:04:48.385Z,4.70
2024-03-05T14:09:50.557Z,5.60
2024-03-05T14:14:52.194Z,7.05
2024-03-05T14:19:53.957Z,6.10
2024-03-05T14:24:55.750Z,5.00
2024-03-05T14:29:57.801Z,4.80
2024-03-05T14:34:59.865Z,5.40
2024-03-05T14:40:01.832Z,4.70
2024-03-05T14:45:03.634Z,3.90
2024-03-05T14:50:06.302Z,4.40
2024-03-05T14:55:13.720Z,4.53
2024-03-05T15:00:17.324Z,4.68
2024-03-05T15:05:20.284Z,4.95
2024-03-05T15:10:22.997Z,3.97
2024-03-05T15:15:25.268Z,4.45
2024-03-05T15:20:26.934Z,4.30
2024-03-05T15:25:28.663Z,4.35
2024-03-05T15:30:33.126Z,4.07
2024-03-05T15:35:36.352Z,3.78
2024-03-05T15:40:39.018Z,2.80
2024-03-05T15:45:41.747Z,2.95
2024-03-05T15:50:45.861Z,3.22
2024-03-05T15:55:47.897Z,3.55
2024-03-05T16:00:49.773Z,3.08
2024-03-05T16:06:00.028Z,2.90
2024-03-05T16:11:08.559Z,3.08
2024-03-05T16:16:10.773Z,3.53
2024-03-05T16:21:14.339Z,3.47
2024-03-05T16:26:16.913Z,3.78
2024-03-05T16:31:18.577Z,3.20
2024-03-05T16:36:20.512Z,3.55
2024-03-05T16:41:22.329Z,3.20
2024-03-05T16:46:25.139Z,3.35
2024-03-05T16:51:26.791Z,2.80
2024-03-05T16:56:28.436Z,2.97
2024-03-05T17:01:30.143Z,2.50
2024-03-05T17:06:33.125Z,2.78
2024-03-05T17:11:35.179Z,2.72
2024-03-05T17:16:47.107Z,2.80
2024-03-05T17:21:50.641Z,2.90
2024-03-05T17:26:52.354Z,3.10
2024-03-05T17:31:55.775Z,2.65
2024-03-05T17:36:57.585Z,3.15
2024-03-05T17:42:00.019Z,3.30
2024-03-05T17:47:01.795Z,3.15
2024-03-05T17:52:03.758Z,3.17
2024-03-05T17:57:07.482Z,3.00
2024-03-05T18:02:09.580Z,3.22
2024-03-05T18:07:11.241Z,2.55
2024-03-05T18:12:15.786Z,4.30
2024-03-05T18:17:17.863Z,3.60
2024-03-05T18:22:19.755Z,3.30
2024-03-05T18:27:22.685Z,3.58
2024-03-05T18:32:26.536Z,3.25
2024-03-05T18:37:28.204Z,3.70
2024-03-05T18:42:29.884Z,3.85
2024-03-05T18:47:31.572Z,4.28
2024-03-05T18:52:33.608Z,6.72
2024-03-05T18:57:35.291Z,7.38
2024-03-05T19:02:36.916Z,7.78
2024-03-05T19:07:38.674Z,7.53
2024-03-05T19:12:41.123Z,6.50
2024-03-05T19:17:43.918Z,5.47
2024-03-05T19:22:45.590Z,5.05
2024-03-05T19:27:47.253Z,4.50
2024-03-05T19:32:49.824Z,6.07
2024-03-05T19:37:51.569Z,5.45
2024-03-05T19:42:59.338Z,5.50
2024-03-05T19:48:01.069Z,3.72
2024-03-05T19:53:03.703Z,3.80
2024-03-05T19:58:05.590Z,3.92
2024-03-05T20:03:07.202Z,3.67
2024-03-05T20:08:09.263Z,3.35
2024-03-05T20:13:11.093Z,4.10
2024-03-05T20:18:12.765Z,4.03
2024-03-05T20:23:14.530Z,3.83
2024-03-05T20:28:16.520Z,3.45
2024-03-05T20:33:18.251Z,4.30
2024-03-05T20:38:19.866Z,6.25
2024-03-05T20:43:21.503Z,8.40
2024-03-05T20:48:23.104Z,6.35
2024-03-05T20:53:24.839Z,6.50
2024-03-05T20:58:26.474Z,5.55
2024-03-05T21:03:31.536Z,5.10
2024-03-05T21:08:33.243Z,4.15
2024-03-05T21:13:42.731Z,4.40
2024-03-05T21:18:44.636Z,4.25
2024-03-05T21:23:46.245Z,4.68
2024-03-05T21:28:47.918Z,3.88
2024-03-05T21:33:50.246Z,4.22
2024-03-05T21:38:51.872Z,4.82
2024-03-05T21:43:53.590Z,4.20
2024-03-05T21:48:55.443Z,4.47
2024-03-05T21:53:57.876Z,5.07
2024-03-05T21:58:59.500Z,4.30
2024-03-05T22:04:01.152Z,5.13
2024-03-05T22:09:10.127Z,5.65
2024-03-05T22:14:12.891Z,4.95
2024-03-05T22:19:14.626Z,4.90
2024-03-05T22:24:16.878Z,5.35
2024-03-05T22:29:18.647Z,4.38
2024-03-05T22:34:20.284Z,4.50
2024-03-05T22:39:22.228Z,4.10
2024-03-05T22:44:24.828Z,4.90
2024-03-05T22:49:26.472Z,4.75
2024-03-05T22:54:28.690Z,4.85
2024-03-05T22:59:31.270Z,4.50
2024-03-05T23:04:33.841Z,4.50
2024-03-05T23:09:35.890Z,4.35
2024-03-05T23:14:37.802Z,4.70
2024-03-05T23:19:41.727Z,3.65
2024-03-05T23:24:44.667Z,4.10
2024-03-05T23:29:47.162Z,4.40
2024-03-05T23:34:48.792Z,4.05
2024-03-05T23:39:50.455Z,5.15
2024-03-05T23:44:53.573Z,5.25
2024-03-05T23:49:55.203Z,4.90
2024-03-05T23:55:00.135Z,4.22
